Time;durP1;ratioP1;P1;durP2;ratioP2;P2;SDS_P1;SDS_P2;PMS_P1;PMS_P2;Temp;Humidity;BMP_temperature;BMP_pressure;BME280_temperature;BME280_humidity;BME280_pressure;Samples;Min_cycle;Max_cycle;Signal;HPM_P1;HPM_P2
2023/08/14 00:01:21;;;;;;;6.60;1.70;;;;;;;;;;5037745;28;20061;-64
2023/08/14 00:03:47;;;;;;;4.20;1.30;;;;;;;;;;5038172;28;20036;-66
2023/08/14 00:06:13;;;;;;;3.95;1.23;;;;;;;;;;5037935;28;20686;-64
2023/08/14 00:08:42;;;;;;;3.45;1.10;;;;;;;;;;5036425;28;20119;-63
2023/08/14 00:11:08;;;;;;;2.88;1.67;;;;;;;;;;5031098;28;20492;-63
2023/08/14 00:13:49;;;;;;;2.72;1.67;;;;;;;;;;5036661;28;20514;-63
2023/08/14 00:16:15;;;;;;;4.57;1.42;;;;;;;;;;5031233;28;20029;-63
2023/08/14 00:18:41;;;;;;;4.32;1.80;;;;;;;;;;5037147;28;20036;-63
2023/08/14 00:21:07;;;;;;;5.93;1.77;;;;;;;;;;5031648;28;20036;-63
2023/08/14 00:23:33;;;;;;;2.97;1.48;;;;;;;;;;5036445;28;20033;-64
2023/08/14 00:25:59;;;;;;;3.45;1.40;;;;;;;;;;5032400;28;20042;-63
2023/08/14 00:28:25;;;;;;;3.25;1.67;;;;;;;;;;5035125;28;20503;-63
2023/08/14 00:30:51;;;;;;;3.30;1.83;;;;;;;;;;5033606;28;20136;-63
2023/08/14 00:33:17;;;;;;;2.85;1.65;;;;;;;;;;5034370;28;20025;-64
2023/08/14 00:35:43;;;;;;;3.70;1.50;;;;;;;;;;5041094;28;20037;-63
2023/08/14 00:38:09;;;;;;;2.45;1.20;;;;;;;;;;5033437;28;20090;-63
2023/08/14 00:40:35;;;;;;;4.28;1.40;;;;;;;;;;5040706;28;20029;-63
2023/08/14 00:43:01;;;;;;;2.70;1.05;;;;;;;;;;5033329;28;20033;-63
2023/08/14 00:45:28;;;;;;;2.70;1.30;;;;;;;;;;5035792;28;20043;-63
2023/08/14 00:47:54;;;;;;;3.45;1.30;;;;;;;;;;5030848;28;20041;-63
2023/08/14 00:50:21;;;;;;;3.22;1.77;;;;;;;;;;5041181;28;20036;-63
2023/08/14 00:52:49;;;;;;;3.05;1.90;;;;;;;;;;5033001;28;20037;-63
2023/08/14 00:55:21;;;;;;;4.82;2.33;;;;;;;;;;5040852;28;20029;-63
2023/08/14 00:57:47;;;;;;;5.07;2.25;;;;;;;;;;5033159;28;20048;-63
2023/08/14 01:00:14;;;;;;;7.20;2.53;;;;;;;;;;5040547;28;20159;-63
2023/08/14 01:02:41;;;;;;;5.85;2.20;;;;;;;;;;5040374;28;21036;-63
2023/08/14 01:05:07;;;;;;;4.18;2.05;;;;;;;;;;5040202;28;20048;-63
2023/08/14 01:07:33;;;;;;;8.65;2.80;;;;;;;;;;5023462;28;20940;-63
2023/08/14 01:10:01;;;;;;;6.55;2.78;;;;;;;;;;5039773;28;20731;-63
2023/08/14 01:12:37;;;;;;;8.73;2.78;;;;;;;;;;5040282;28;20132;-63
2023/08/14 01:15:07;;;;;;;8.75;3.30;;;;;;;;;;5040181;28;20036;-63
2023/08/14 01:17:35;;;;;;;14.15;3.45;;;;;;;;;;5032853;28;20059;-63
2023/08/14 01:20:01;;;;;;;5.90;2.72;;;;;;;;;;5040068;28;20025;-64
2023/08/14 01:23:06;;;;;;;5.18;2.50;;;;;;;;;;5040746;28;20533;-63
2023/08/14 01:25:33;;;;;;;5.93;2.17;;;;;;;;;;4967160;28;20536;-63
2023/08/14 01:28:00;;;;;;;5.68;2.80;;;;;;;;;;4967158;28;20527;-63
2023/08/14 01:30:27;;;;;;;4.68;2.22;;;;;;;;;;4997471;28;20047;-63
2023/08/14 01:32:53;;;;;;;5.03;2.58;;;;;;;;;;5038728;28;20131;-63
2023/08/14 01:35:21;;;;;;;4.90;2.58;;;;;;;;;;5038693;28;20036;-63
2023/08/14 01:37:53;;;;;;;8.00;2.40;;;;;;;;;;5038319;28;21010;-63
2023/08/14 01:40:22;;;;;;;8.05;2.90;;;;;;;;;;5039075;28;20126;-63
2023/08/14 01:42:49;;;;;;;7.35;2.22;;;;;;;;;;5038783;28;20029;-63
2023/08/14 01:45:17;;;;;;;4.25;2.50;;;;;;;;;;5038727;28;20082;-63
2023/08/14 01:47:45;;;;;;;4.70;2.30;;;;;;;;;;5032010;28;20514;-63
2023/08/14 01:50:14;;;;;;;5.90;2.75;;;;;;;;;;5039330;28;20190;-63
2023/08/14 01:52:40;;;;;;;4.60;2.47;;;;;;;;;;5039510;28;20120;-63
2023/08/14 01:55:06;;;;;;;5.35;2.28;;;;;;;;;;5040198;28;20076;-63
2023/08/14 01:57:33;;;;;;;4.35;2.13;;;;;;;;;;5039332;28;20025;-63
2023/08/14 01:59:59;;;;;;;4.93;1.92;;;;;;;;;;5038865;28;20032;-63
2023/08/14 02:02:25;;;;;;;5.63;2.20;;;;;;;;;;5038736;28;20154;-63
2023/08/14 02:04:51;;;;;;;4.30;2.30;;;;;;;;;;5039571;28;21817;-63
2023/08/14 02:07:18;;;;;;;6.05;2.42;;;;;;;;;;5038873;28;20955;-63
2023/08/14 02:09:44;;;;;;;5.25;2.60;;;;;;;;;;5039090;28;20044;-63
2023/08/14 02:12:10;;;;;;;5.82;2.90;;;;;;;;;;5038569;28;20780;-63
2023/08/14 02:14:36;;;;;;;4.05;2.42;;;;;;;;;;5039535;28;20029;-63
2023/08/14 02:17:02;;;;;;;6.80;3.28;;;;;;;;;;5038968;28;20028;-63
2023/08/14 02:19:28;;;;;;;5.00;2.95;;;;;;;;;;5039018;28;20036;-63
2023/08/14 02:21:54;;;;;;;5.70;3.25;;;;;;;;;;5038054;28;20036;-63
2023/08/14 02:24:20;;;;;;;6.97;4.15;;;;;;;;;;5038751;28;20098;-63
2023/08/14 02:26:46;;;;;;;5.35;3.13;;;;;;;;;;5038728;28;20064;-64
2023/08/14 02:29:12;;;;;;;5.90;3.53;;;;;;;;;;5030505;28;20090;-63
2023/08/14 02:31:39;;;;;;;5.13;3.13;;;;;;;;;;5038181;28;20033;-63
2023/08/14 02:34:05;;;;;;;5.88;3.72;;;;;;;;;;5038997;28;20033;-64
2023/08/14 02:36:31;;;;;;;6.13;3.72;;;;;;;;;;5038529;28;20033;-63
2023/08/14 02:38:58;;;;;;;8.23;3.95;;;;;;;;;;5038928;28;20475;-63
2023/08/14 02:41:24;;;;;;;5.80;4.30;;;;;;;;;;5034688;28;20039;-63
2023/08/14 02:43:50;;;;;;;5.95;3.67;;;;;;;;;;5036171;28;20135;-63
2023/08/14 02:46:16;;;;;;;7.35;3.92;;;;;;;;;;5035336;28;20072;-63
2023/08/14 02:48:45;;;;;;;6.20;3.70;;;;;;;;;;5034385;28;20395;-63
2023/08/14 02:51:11;;;;;;;7.28;4.80;;;;;;;;;;5036045;28;20064;-63
2023/08/14 02:53:37;;;;;;;8.15;4.20;;;;;;;;;;5034173;28;20063;-63
2023/08/14 02:56:03;;;;;;;6.43;4.45;;;;;;;;;;5035750;28;20113;-63
2023/08/14 02:58:30;;;;;;;6.40;4.38;;;;;;;;;;5033094;28;20744;-63
2023/08/14 03:00:56;;;;;;;7.20;4.22;;;;;;;;;;5036481;28;20029;-63
2023/08/14 03:03:22;;;;;;;7.15;4.10;;;;;;;;;;5032886;28;20048;-63
2023/08/14 03:05:48;;;;;;;6.60;3.97;;;;;;;;;;5038241;28;20040;-63
2023/08/14 03:08:18;;;;;;;9.60;5.28;;;;;;;;;;5024177;28;20464;-63
2023/08/14 03:10:46;;;;;;;7.50;4.70;;;;;;;;;;5038385;28;20032;-63
2023/08/14 03:13:15;;;;;;;7.15;4.75;;;;;;;;;;5030692;28;20151;-63
2023/08/14 03:15:42;;;;;;;8.75;4.88;;;;;;;;;;5038021;28;20063;-63
2023/08/14 03:18:08;;;;;;;10.05;5.60;;;;;;;;;;5030849;28;20052;-63
2023/08/14 03:20:34;;;;;;;9.30;5.45;;;;;;;;;;5038231;28;20126;-63
2023/08/14 03:23:00;;;;;;;11.25;5.82;;;;;;;;;;5023724;28;20872;-63
2023/08/14 03:25:26;;;;;;;9.95;5.13;;;;;;;;;;5037883;28;20033;-63
2023/08/14 03:27:52;;;;;;;7.75;5.32;;;;;;;;;;5023918;28;20037;-63
2023/08/14 03:30:18;;;;;;;8.32;5.55;;;;;;;;;;5038720;28;20106;-63
2023/08/14 03:32:44;;;;;;;8.38;5.90;;;;;;;;;;5031239;28;20600;-63
2023/08/14 03:35:11;;;;;;;8.15;5.30;;;;;;;;;;5037782;28;20380;-63
2023/08/14 03:37:37;;;;;;;12.30;5.28;;;;;;;;;;5025234;28;20045;-63
2023/08/14 03:40:03;;;;;;;10.05;5.25;;;;;;;;;;5036271;28;20055;-63
2023/08/14 03:42:29;;;;;;;7.63;5.70;;;;;;;;;;5030555;28;20037;-63
2023/08/14 03:44:55;;;;;;;9.60;5.03;;;;;;;;;;5034144;28;20068;-63
2023/08/14 03:47:21;;;;;;;8.75;5.80;;;;;;;;;;5030031;28;20127;-64
2023/08/14 03:49:47;;;;;;;9.30;5.63;;;;;;;;;;5035258;28;20028;-63
2023/08/14 03:52:14;;;;;;;8.55;5.57;;;;;;;;;;5025748;28;20033;-63
2023/08/14 03:54:40;;;;;;;9.30;5.60;;;;;;;;;;5034202;28;20021;-63
2023/08/14 03:57:06;;;;;;;13.30;6.68;;;;;;;;;;5028647;28;20061;-63
2023/08/14 03:59:32;;;;;;;14.38;5.68;;;;;;;;;;5033477;28;20041;-63
2023/08/14 04:01:58;;;;;;;7.90;5.43;;;;;;;;;;5030003;28;20037;-63
2023/08/14 04:04:24;;;;;;;11.18;6.20;;;;;;;;;;5032111;28;20033;-63
2023/08/14 04:06:50;;;;;;;8.88;5.43;;;;;;;;;;5037749;28;20041;-63
2023/08/14 04:09:16;;;;;;;8.98;5.55;;;;;;;;;;5031077;28;20037;-63
2023/08/14 04:11:42;;;;;;;13.38;5.90;;;;;;;;;;5037896;28;20044;-63
2023/08/14 04:14:08;;;;;;;9.68;5.18;;;;;;;;;;5031071;28;20052;-63
2023/08/14 04:16:43;;;;;;;11.30;6.30;;;;;;;;;;5037620;28;20037;-63
2023/08/14 04:19:17;;;;;;;8.75;5.50;;;;;;;;;;5031058;28;20065;-63
2023/08/14 04:21:43;;;;;;;9.10;6.00;;;;;;;;;;5037507;28;20129;-63
2023/08/14 04:24:09;;;;;;;10.55;5.80;;;;;;;;;;5030979;28;20040;-63
2023/08/14 04:26:36;;;;;;;11.20;6.22;;;;;;;;;;5040520;28;20037;-63
2023/08/14 04:29:03;;;;;;;10.90;7.07;;;;;;;;;;5040442;28;20036;-63
2023/08/14 04:31:29;;;;;;;7.75;5.43;;;;;;;;;;5040804;28;21143;-63
2023/08/14 04:33:55;;;;;;;11.88;6.40;;;;;;;;;;5039196;28;20539;-63
2023/08/14 04:36:21;;;;;;;8.77;5.63;;;;;;;;;;5041223;28;20759;-63
2023/08/14 04:38:47;;;;;;;11.63;6.85;;;;;;;;;;5040760;28;20032;-63
2023/08/14 04:41:13;;;;;;;10.32;5.97;;;;;;;;;;5041188;28;20115;-63
2023/08/14 04:43:40;;;;;;;8.88;6.25;;;;;;;;;;5040601;28;20062;-63
2023/08/14 04:46:09;;;;;;;11.50;6.45;;;;;;;;;;5040474;28;20113;-63
2023/08/14 04:48:36;;;;;;;13.60;6.00;;;;;;;;;;5033588;28;20526;-63
2023/08/14 04:51:02;;;;;;;10.50;6.28;;;;;;;;;;5041624;28;20071;-63
2023/08/14 04:53:29;;;;;;;12.60;6.47;;;;;;;;;;5033967;28;20385;-63
2023/08/14 04:55:55;;;;;;;10.63;6.32;;;;;;;;;;5040737;28;20039;-63
2023/08/14 04:58:21;;;;;;;9.50;6.10;;;;;;;;;;5033983;28;20037;-63
2023/08/14 05:00:47;;;;;;;15.13;6.35;;;;;;;;;;5040328;28;20060;-63
2023/08/14 05:03:13;;;;;;;9.55;5.50;;;;;;;;;;5025539;28;20040;-63
2023/08/14 05:05:39;;;;;;;9.18;5.88;;;;;;;;;;5040271;28;20068;-63
2023/08/14 05:08:05;;;;;;;10.43;5.90;;;;;;;;;;5034256;28;20071;-63
2023/08/14 05:10:33;;;;;;;9.50;6.03;;;;;;;;;;5040175;28;20075;-63
2023/08/14 05:12:59;;;;;;;9.93;5.03;;;;;;;;;;5032529;28;20056;-63
2023/08/14 05:15:25;;;;;;;11.10;6.00;;;;;;;;;;5040534;28;20031;-63
2023/08/14 05:17:51;;;;;;;11.23;6.63;;;;;;;;;;5040859;28;20087;-63
2023/08/14 05:20:17;;;;;;;11.68;6.63;;;;;;;;;;5040632;28;20028;-63
2023/08/14 05:22:43;;;;;;;9.70;6.18;;;;;;;;;;5039982;28;20655;-63
2023/08/14 05:25:10;;;;;;;13.70;7.03;;;;;;;;;;5039752;28;20033;-63
2023/08/14 05:27:38;;;;;;;10.00;6.90;;;;;;;;;;5040307;28;20155;-63
2023/08/14 05:30:05;;;;;;;9.70;6.03;;;;;;;;;;5039945;28;20032;-63
2023/08/14 05:32:31;;;;;;;12.57;6.05;;;;;;;;;;5038820;28;20068;-63
2023/08/14 05:34:58;;;;;;;13.00;6.80;;;;;;;;;;5039919;28;20422;-63
2023/08/14 05:37:24;;;;;;;15.25;7.82;;;;;;;;;;5038697;28;20114;-63
2023/08/14 05:39:50;;;;;;;9.98;6.43;;;;;;;;;;5040303;28;20993;-63
2023/08/14 05:42:16;;;;;;;9.68;7.32;;;;;;;;;;5039301;28;21845;-63
2023/08/14 05:44:42;;;;;;;11.68;6.43;;;;;;;;;;5039749;28;20936;-63
2023/08/14 05:47:08;;;;;;;11.13;6.65;;;;;;;;;;5038002;28;20033;-64
2023/08/14 05:49:34;;;;;;;12.23;6.65;;;;;;;;;;5039049;28;20050;-64
2023/08/14 05:52:00;;;;;;;9.43;6.40;;;;;;;;;;5038689;28;20036;-63
2023/08/14 05:54:26;;;;;;;11.25;6.35;;;;;;;;;;5038816;28;20032;-63
2023/08/14 05:56:55;;;;;;;11.10;6.55;;;;;;;;;;5038072;28;20036;-63
2023/08/14 05:59:21;;;;;;;14.40;6.70;;;;;;;;;;5037986;28;20036;-63
2023/08/14 06:01:47;;;;;;;9.13;6.03;;;;;;;;;;5039671;28;20104;-63
2023/08/14 06:04:13;;;;;;;12.43;6.65;;;;;;;;;;5039071;28;20102;-63
2023/08/14 06:06:39;;;;;;;11.45;6.22;;;;;;;;;;5038484;28;20135;-63
2023/08/14 06:09:06;;;;;;;12.05;6.22;;;;;;;;;;5039708;28;20075;-63
2023/08/14 06:11:32;;;;;;;8.82;5.95;;;;;;;;;;5039182;28;20018;-63
2023/08/14 06:13:58;;;;;;;12.27;6.95;;;;;;;;;;5039504;28;20047;-63
2023/08/14 06:16:24;;;;;;;16.70;6.90;;;;;;;;;;5037781;28;20024;-63
2023/08/14 06:18:50;;;;;;;14.68;6.63;;;;;;;;;;5039151;28;20036;-63
2023/08/14 06:21:16;;;;;;;10.48;6.57;;;;;;;;;;5039076;28;20033;-63
2023/08/14 06:23:42;;;;;;;10.65;6.22;;;;;;;;;;5038677;28;20672;-63
2023/08/14 06:26:09;;;;;;;13.73;7.30;;;;;;;;;;5039445;28;20040;-63
2023/08/14 06:28:35;;;;;;;11.15;6.68;;;;;;;;;;5038462;28;20029;-67
2023/08/14 06:31:02;;;;;;;10.90;6.80;;;;;;;;;;5038386;28;20044;-67
2023/08/14 06:33:28;;;;;;;10.85;6.50;;;;;;;;;;5038325;28;20037;-67
2023/08/14 06:35:55;;;;;;;10.52;5.75;;;;;;;;;;5038568;28;20043;-67
2023/08/14 06:38:21;;;;;;;11.52;5.78;;;;;;;;;;5036840;28;20127;-68
2023/08/14 06:40:50;;;;;;;10.45;5.65;;;;;;;;;;5037806;28;20029;-67
2023/08/14 06:43:16;;;;;;;12.38;6.20;;;;;;;;;;5031512;28;20058;-67
2023/08/14 06:45:42;;;;;;;11.10;5.80;;;;;;;;;;5038490;28;20040;-67
2023/08/14 06:48:08;;;;;;;15.45;6.20;;;;;;;;;;5038913;28;20132;-67
2023/08/14 06:50:34;;;;;;;11.18;6.40;;;;;;;;;;5038970;28;20174;-67
2023/08/14 06:53:00;;;;;;;13.20;6.80;;;;;;;;;;5021209;28;21305;-67
2023/08/14 06:55:26;;;;;;;10.73;6.28;;;;;;;;;;5038412;28;20043;-67
2023/08/14 06:57:52;;;;;;;13.38;5.55;;;;;;;;;;5038396;28;20545;-67
2023/08/14 07:00:18;;;;;;;10.02;5.22;;;;;;;;;;5038453;28;20051;-67
2023/08/14 07:02:47;;;;;;;12.07;5.43;;;;;;;;;;5037906;28;20025;-67
2023/08/14 07:05:13;;;;;;;11.77;6.10;;;;;;;;;;5038356;28;20033;-68
2023/08/14 07:07:39;;;;;;;14.40;6.15;;;;;;;;;;5037599;28;20044;-67
2023/08/14 07:10:06;;;;;;;9.95;5.78;;;;;;;;;;5038415;28;20036;-67
2023/08/14 07:12:32;;;;;;;11.80;5.90;;;;;;;;;;5038241;28;20091;-67
2023/08/14 07:15:00;;;;;;;14.65;5.20;;;;;;;;;;5037952;28;20102;-67
2023/08/14 07:17:26;;;;;;;10.23;5.18;;;;;;;;;;5038704;28;20025;-67
2023/08/14 07:19:53;;;;;;;10.82;4.97;;;;;;;;;;5038439;28;20036;-67
2023/08/14 07:22:19;;;;;;;13.10;6.00;;;;;;;;;;5038141;28;20081;-67
2023/08/14 07:24:45;;;;;;;10.35;5.68;;;;;;;;;;5037780;28;20033;-68
2023/08/14 07:27:11;;;;;;;10.60;5.45;;;;;;;;;;5038267;28;20037;-67
2023/08/14 07:29:37;;;;;;;14.88;5.80;;;;;;;;;;5038576;28;20029;-67
2023/08/14 07:32:03;;;;;;;8.63;4.47;;;;;;;;;;5038538;28;20029;-67
2023/08/14 07:34:29;;;;;;;9.40;5.03;;;;;;;;;;5038934;28;20032;-68
2023/08/14 07:36:55;;;;;;;11.60;5.30;;;;;;;;;;5037281;28;20036;-68
2023/08/14 07:39:22;;;;;;;8.35;4.65;;;;;;;;;;5038936;28;20029;-67
2023/08/14 07:41:48;;;;;;;9.70;4.50;;;;;;;;;;5038577;28;20319;-68
2023/08/14 07:44:14;;;;;;;10.32;4.75;;;;;;;;;;5039030;28;20036;-67
2023/08/14 07:46:40;;;;;;;9.15;4.78;;;;;;;;;;5037979;28;20037;-68
2023/08/14 07:49:06;;;;;;;9.93;4.35;;;;;;;;;;5038623;28;20099;-68
2023/08/14 07:51:32;;;;;;;10.65;5.47;;;;;;;;;;5037701;28;20025;-67
2023/08/14 07:53:58;;;;;;;8.60;4.45;;;;;;;;;;5036475;28;20514;-68
2023/08/14 07:56:24;;;;;;;8.65;4.68;;;;;;;;;;5018783;28;21726;-68
2023/08/14 07:58:50;;;;;;;9.20;4.60;;;;;;;;;;5037714;28;21264;-68
2023/08/14 08:01:17;;;;;;;10.25;4.63;;;;;;;;;;5041325;28;20554;-68
2023/08/14 08:03:43;;;;;;;9.52;4.57;;;;;;;;;;5041431;28;20118;-68
2023/08/14 08:06:12;;;;;;;13.35;5.53;;;;;;;;;;5041340;28;20054;-68
2023/08/14 08:08:38;;;;;;;11.00;5.05;;;;;;;;;;5034977;28;20037;-68
2023/08/14 08:11:04;;;;;;;8.95;4.43;;;;;;;;;;5041789;28;20025;-68
2023/08/14 08:13:30;;;;;;;9.57;4.93;;;;;;;;;;5042085;28;20144;-68
2023/08/14 08:15:56;;;;;;;8.85;4.85;;;;;;;;;;5041848;28;21064;-68
2023/08/14 08:18:22;;;;;;;9.73;5.10;;;;;;;;;;5041677;28;20029;-68
2023/08/14 08:20:49;;;;;;;8.82;4.80;;;;;;;;;;5040426;28;20140;-68
2023/08/14 08:23:15;;;;;;;12.82;5.10;;;;;;;;;;5041315;28;20033;-68
2023/08/14 08:25:41;;;;;;;10.30;4.45;;;;;;;;;;5041611;28;20757;-68
2023/08/14 08:28:07;;;;;;;12.52;5.15;;;;;;;;;;5041492;28;21866;-68
2023/08/14 08:30:33;;;;;;;12.73;4.40;;;;;;;;;;5041889;28;20063;-68
2023/08/14 08:32:59;;;;;;;11.75;4.82;;;;;;;;;;5041113;28;20112;-68
2023/08/14 08:35:25;;;;;;;8.95;3.92;;;;;;;;;;5040795;28;20064;-68
2023/08/14 08:37:51;;;;;;;10.05;4.50;;;;;;;;;;5041351;28;20070;-68
2023/08/14 08:40:17;;;;;;;10.93;4.32;;;;;;;;;;5040637;28;20110;-68
2023/08/14 08:42:44;;;;;;;10.88;4.60;;;;;;;;;;5040114;28;20937;-68
2023/08/14 08:45:10;;;;;;;8.23;3.78;;;;;;;;;;5040449;28;20119;-68
2023/08/14 08:47:38;;;;;;;10.50;3.88;;;;;;;;;;5034478;28;21734;-68
2023/08/14 08:50:05;;;;;;;8.43;4.22;;;;;;;;;;5040180;28;20045;-68
2023/08/14 08:52:32;;;;;;;8.02;3.15;;;;;;;;;;5039204;28;20056;-68
2023/08/14 08:55:01;;;;;;;6.72;3.10;;;;;;;;;;5039995;28;20031;-68
2023/08/14 08:57:27;;;;;;;6.82;2.50;;;;;;;;;;5035549;28;20056;-68
2023/08/14 08:59:53;;;;;;;9.48;3.10;;;;;;;;;;5038732;28;20123;-68
2023/08/14 09:02:20;;;;;;;8.10;3.03;;;;;;;;;;5037117;28;20476;-68
2023/08/14 09:04:46;;;;;;;6.13;2.40;;;;;;;;;;5030712;28;20077;-68
2023/08/14 09:07:15;;;;;;;8.43;2.63;;;;;;;;;;5041092;28;20041;-68
2023/08/14 09:09:42;;;;;;;8.00;3.10;;;;;;;;;;5039549;28;20763;-68
2023/08/14 09:12:11;;;;;;;7.60;2.63;;;;;;;;;;5037005;28;20490;-68
2023/08/14 09:14:41;;;;;;;6.53;2.10;;;;;;;;;;5028786;28;20021;-68
2023/08/14 09:17:10;;;;;;;6.18;1.95;;;;;;;;;;5038539;28;20076;-68
2023/08/14 09:19:38;;;;;;;7.20;1.70;;;;;;;;;;5028507;28;20116;-68
2023/08/14 09:22:05;;;;;;;4.00;1.70;;;;;;;;;;5040122;28;20029;-68
2023/08/14 09:24:34;;;;;;;5.75;1.85;;;;;;;;;;5041469;28;20040;-68
2023/08/14 09:27:00;;;;;;;8.13;1.70;;;;;;;;;;5038016;28;20036;-68
2023/08/14 09:29:26;;;;;;;10.23;2.33;;;;;;;;;;5035975;28;20037;-68
2023/08/14 09:31:53;;;;;;;5.43;1.65;;;;;;;;;;5039356;28;20033;-64
2023/08/14 09:34:19;;;;;;;8.05;2.30;;;;;;;;;;5034227;28;20052;-64
2023/08/14 09:36:46;;;;;;;4.53;1.50;;;;;;;;;;5039792;28;20033;-64
2023/08/14 09:39:12;;;;;;;5.35;1.67;;;;;;;;;;5024333;28;20021;-63
2023/08/14 09:41:38;;;;;;;7.05;1.50;;;;;;;;;;5039918;28;20037;-64
2023/08/14 09:44:05;;;;;;;5.65;1.45;;;;;;;;;;5032458;28;21739;-64
2023/08/14 09:46:32;;;;;;;5.47;1.67;;;;;;;;;;5039428;28;20048;-64
2023/08/14 09:48:58;;;;;;;5.43;1.67;;;;;;;;;;5025394;28;20653;-64
2023/08/14 09:51:24;;;;;;;6.85;1.70;;;;;;;;;;5039309;28;20093;-64
2023/08/14 09:53:51;;;;;;;4.85;1.60;;;;;;;;;;5021469;28;20166;-64
2023/08/14 09:56:18;;;;;;;5.05;1.50;;;;;;;;;;5039640;28;20504;-64
2023/08/14 09:58:44;;;;;;;6.47;1.55;;;;;;;;;;5025265;28;20040;-64
2023/08/14 10:01:12;;;;;;;6.57;1.55;;;;;;;;;;5037132;28;20671;-64
2023/08/14 10:03:39;;;;;;;4.05;1.20;;;;;;;;;;5024348;28;20702;-64
2023/08/14 10:06:07;;;;;;;5.38;1.30;;;;;;;;;;5037839;28;20125;-64
2023/08/14 10:08:34;;;;;;;6.20;1.42;;;;;;;;;;5032193;28;20041;-64
2023/08/14 10:11:04;;;;;;;3.58;1.25;;;;;;;;;;5037143;28;20049;-64
2023/08/14 10:13:32;;;;;;;5.05;1.50;;;;;;;;;;5033459;28;20052;-64
2023/08/14 10:16:00;;;;;;;7.97;1.70;;;;;;;;;;5026102;28;20642;-64
2023/08/14 10:18:29;;;;;;;4.95;1.25;;;;;;;;;;5033911;28;20033;-64
2023/08/14 10:20:57;;;;;;;6.25;1.85;;;;;;;;;;5037357;28;20086;-64
2023/08/14 10:23:23;;;;;;;7.50;1.30;;;;;;;;;;5035157;28;20117;-64
2023/08/14 10:25:50;;;;;;;4.53;1.45;;;;;;;;;;5036300;28;20411;-64
2023/08/14 10:28:18;;;;;;;6.15;1.20;;;;;;;;;;5039116;28;20059;-64
2023/08/14 10:30:45;;;;;;;3.05;1.05;;;;;;;;;;5039001;28;20078;-64
2023/08/14 10:33:12;;;;;;;3.35;1.17;;;;;;;;;;5017785;28;20491;-64
2023/08/14 10:36:04;;;;;;;5.97;1.15;;;;;;;;;;5035236;28;20552;-64
2023/08/14 10:38:46;;;;;;;4.30;1.13;;;;;;;;;;5023519;28;20045;-64
2023/08/14 10:41:14;;;;;;;4.38;0.98;;;;;;;;;;5030519;28;20036;-64
2023/08/14 10:43:40;;;;;;;3.70;1.10;;;;;;;;;;5031607;28;20032;-64
2023/08/14 10:46:16;;;;;;;6.50;1.20;;;;;;;;;;5038215;28;20159;-64
2023/08/14 10:48:43;;;;;;;4.35;1.10;;;;;;;;;;5031985;28;20024;-64
2023/08/14 10:51:10;;;;;;;5.63;1.70;;;;;;;;;;5037644;28;20875;-64
2023/08/14 10:53:36;;;;;;;5.80;1.33;;;;;;;;;;5032146;28;20391;-64
2023/08/14 10:56:05;;;;;;;5.35;1.17;;;;;;;;;;5036873;28;20037;-64
2023/08/14 10:58:32;;;;;;;5.00;1.75;;;;;;;;;;5032583;28;20394;-64
2023/08/14 11:01:19;;;;;;;3.10;1.00;;;;;;;;;;5036302;28;20470;-64
2023/08/14 11:04:04;;;;;;;5.20;1.25;;;;;;;;;;5031293;28;20027;-64
2023/08/14 11:06:49;;;;;;;5.38;1.10;;;;;;;;;;5031311;28;20029;-64
2023/08/14 11:09:15;;;;;;;4.57;1.23;;;;;;;;;;5030699;28;20033;-64
2023/08/14 11:11:44;;;;;;;4.55;1.50;;;;;;;;;;5036307;28;20079;-64
2023/08/14 11:14:10;;;;;;;4.13;1.00;;;;;;;;;;5027353;28;20106;-64
2023/08/14 11:16:36;;;;;;;5.55;1.20;;;;;;;;;;5010596;28;20381;-64
2023/08/14 11:19:02;;;;;;;6.40;1.60;;;;;;;;;;5022911;28;20037;-64
2023/08/14 11:21:28;;;;;;;3.30;0.80;;;;;;;;;;5038349;28;20025;-64
2023/08/14 11:23:57;;;;;;;4.43;1.40;;;;;;;;;;5031021;28;20094;-64
2023/08/14 11:26:23;;;;;;;5.57;1.48;;;;;;;;;;5038330;28;20033;-64
2023/08/14 11:28:49;;;;;;;4.50;1.40;;;;;;;;;;5037827;28;20036;-64
2023/08/14 11:31:15;;;;;;;3.15;0.98;;;;;;;;;;5037969;28;20040;-64
2023/08/14 11:33:41;;;;;;;4.30;1.17;;;;;;;;;;5019229;28;20052;-64
2023/08/14 11:36:08;;;;;;;3.05;0.98;;;;;;;;;;5042411;28;20040;-64
2023/08/14 11:38:34;;;;;;;5.32;0.95;;;;;;;;;;5041968;28;20040;-64
2023/08/14 11:41:00;;;;;;;7.03;1.42;;;;;;;;;;5042187;28;20111;-64
2023/08/14 11:43:26;;;;;;;6.28;1.35;;;;;;;;;;5041794;28;20029;-64
2023/08/14 11:45:53;;;;;;;4.88;1.35;;;;;;;;;;5041186;28;20039;-64
2023/08/14 11:48:19;;;;;;;6.20;1.52;;;;;;;;;;5041910;28;20762;-64
2023/08/14 11:50:48;;;;;;;4.07;1.23;;;;;;;;;;5042034;28;20033;-64
2023/08/14 11:53:15;;;;;;;5.45;1.52;;;;;;;;;;5042192;28;20075;-64
2023/08/14 11:55:41;;;;;;;3.55;1.13;;;;;;;;;;5041842;28;20064;-64
2023/08/14 11:58:07;;;;;;;4.38;1.27;;;;;;;;;;5041125;28;20177;-64
2023/08/14 12:00:33;;;;;;;4.35;1.15;;;;;;;;;;5041526;28;20103;-64
2023/08/14 12:02:59;;;;;;;4.20;1.05;;;;;;;;;;5040574;28;20072;-64
2023/08/14 12:05:26;;;;;;;3.60;1.20;;;;;;;;;;5040629;28;20171;-64
2023/08/14 12:07:52;;;;;;;4.68;1.40;;;;;;;;;;5040216;28;20171;-64
2023/08/14 12:10:18;;;;;;;4.18;1.23;;;;;;;;;;5040255;28;20033;-64
2023/08/14 12:12:45;;;;;;;6.55;1.40;;;;;;;;;;5039942;28;20071;-64
2023/08/14 12:15:11;;;;;;;4.38;1.10;;;;;;;;;;5040105;28;20244;-64
2023/08/14 12:17:37;;;;;;;3.75;1.10;;;;;;;;;;5040108;28;20085;-64
2023/08/14 12:20:07;;;;;;;5.32;1.52;;;;;;;;;;5037306;28;20037;-64
2023/08/14 12:22:33;;;;;;;4.25;1.00;;;;;;;;;;5040760;28;20040;-64
2023/08/14 12:24:59;;;;;;;5.80;1.77;;;;;;;;;;5040640;28;20221;-64
2023/08/14 12:27:28;;;;;;;6.57;1.85;;;;;;;;;;5040291;28;20106;-64
2023/08/14 12:29:55;;;;;;;4.53;1.30;;;;;;;;;;5041176;28;20028;-64
2023/08/14 12:32:22;;;;;;;6.05;1.50;;;;;;;;;;5039589;28;20032;-64
2023/08/14 12:34:48;;;;;;;5.50;1.33;;;;;;;;;;5041588;28;20025;-64
2023/08/14 12:37:15;;;;;;;5.65;1.13;;;;;;;;;;5040881;28;21308;-64
2023/08/14 12:39:44;;;;;;;5.97;1.35;;;;;;;;;;5033752;28;21706;-64
2023/08/14 12:42:13;;;;;;;4.25;1.45;;;;;;;;;;5040480;28;20037;-64
2023/08/14 12:44:39;;;;;;;7.47;1.65;;;;;;;;;;5040722;28;20060;-64
2023/08/14 12:47:06;;;;;;;3.50;1.13;;;;;;;;;;5040663;28;20102;-64
2023/08/14 12:49:33;;;;;;;4.75;1.35;;;;;;;;;;5040665;28;21704;-64
2023/08/14 12:51:59;;;;;;;5.10;1.20;;;;;;;;;;5040809;28;20062;-64
2023/08/14 12:54:26;;;;;;;4.38;1.30;;;;;;;;;;5040386;28;20786;-64
2023/08/14 12:56:52;;;;;;;6.15;1.48;;;;;;;;;;5040643;28;20037;-64
2023/08/14 12:59:19;;;;;;;4.20;1.35;;;;;;;;;;5040811;28;20063;-64
2023/08/14 13:01:45;;;;;;;5.72;1.60;;;;;;;;;;5040114;28;20067;-64
2023/08/14 13:04:11;;;;;;;3.35;1.10;;;;;;;;;;5040390;28;20051;-64
2023/08/14 13:06:40;;;;;;;4.55;1.25;;;;;;;;;;5039839;28;20051;-64
2023/08/14 13:09:06;;;;;;;4.82;1.60;;;;;;;;;;5040781;28;20029;-64
2023/08/14 13:11:33;;;;;;;6.18;1.48;;;;;;;;;;5040180;28;20028;-64
2023/08/14 13:13:59;;;;;;;7.20;1.80;;;;;;;;;;5040389;28;20059;-64
2023/08/14 13:16:25;;;;;;;5.15;1.80;;;;;;;;;;5040345;28;20492;-64
2023/08/14 13:18:51;;;;;;;5.50;1.65;;;;;;;;;;5040033;28;20508;-64
2023/08/14 13:21:17;;;;;;;7.15;1.60;;;;;;;;;;5040293;28;20074;-64
2023/08/14 13:23:43;;;;;;;5.45;1.83;;;;;;;;;;5032813;28;20063;-64
2023/08/14 13:26:10;;;;;;;5.97;1.95;;;;;;;;;;5040107;28;20025;-64
2023/08/14 13:28:37;;;;;;;5.63;1.55;;;;;;;;;;5039838;28;20037;-64
2023/08/14 13:31:06;;;;;;;5.00;1.30;;;;;;;;;;5039786;28;20157;-64
2023/08/14 13:33:32;;;;;;;5.78;1.30;;;;;;;;;;5039763;28;20032;-64
2023/08/14 13:35:58;;;;;;;5.10;1.45;;;;;;;;;;5040273;28;20870;-64
2023/08/14 13:38:25;;;;;;;6.63;1.40;;;;;;;;;;5039973;28;20044;-63
2023/08/14 13:40:52;;;;;;;5.53;1.40;;;;;;;;;;5039669;28;20029;-64
2023/08/14 13:43:18;;;;;;;6.40;1.98;;;;;;;;;;5039773;28;20033;-63
2023/08/14 13:45:44;;;;;;;4.93;1.73;;;;;;;;;;5038706;28;20569;-64
2023/08/14 13:48:10;;;;;;;4.60;1.70;;;;;;;;;;5038636;28;20495;-64
2023/08/14 13:50:37;;;;;;;4.32;1.77;;;;;;;;;;5039428;28;21656;-64
2023/08/14 13:53:03;;;;;;;5.35;1.70;;;;;;;;;;5039546;28;20063;-64
2023/08/14 13:55:33;;;;;;;7.45;1.70;;;;;;;;;;5039147;28;20864;-64
2023/08/14 13:57:59;;;;;;;4.47;1.35;;;;;;;;;;5039136;28;20029;-64
2023/08/14 14:00:26;;;;;;;5.45;1.50;;;;;;;;;;5039386;28;21114;-64
2023/08/14 14:02:52;;;;;;;5.82;1.73;;;;;;;;;;5039065;28;20047;-64
2023/08/14 14:05:18;;;;;;;6.20;1.75;;;;;;;;;;5039405;28;20033;-64
2023/08/14 14:07:44;;;;;;;8.75;1.95;;;;;;;;;;5021663;28;20032;-64
2023/08/14 14:10:10;;;;;;;5.93;1.70;;;;;;;;;;5039074;28;20122;-63
2023/08/14 14:12:37;;;;;;;7.45;2.22;;;;;;;;;;5039171;28;20084;-64
2023/08/14 14:15:03;;;;;;;7.63;2.08;;;;;;;;;;5037755;28;20148;-64
2023/08/14 14:17:29;;;;;;;8.65;1.70;;;;;;;;;;5038300;28;20480;-64
2023/08/14 14:19:55;;;;;;;4.50;1.38;;;;;;;;;;5038432;28;20032;-64
2023/08/14 14:22:21;;;;;;;5.68;1.50;;;;;;;;;;5037582;28;21868;-64
2023/08/14 14:24:47;;;;;;;6.60;1.52;;;;;;;;;;5038098;28;20033;-63
2023/08/14 14:27:13;;;;;;;6.32;1.70;;;;;;;;;;5038332;28;20044;-64
2023/08/14 14:29:39;;;;;;;8.20;1.83;;;;;;;;;;5038291;28;20082;-64
2023/08/14 14:32:06;;;;;;;6.82;1.70;;;;;;;;;;5037744;28;20024;-64
2023/08/14 14:34:32;;;;;;;9.23;2.35;;;;;;;;;;5039544;28;20040;-64
2023/08/14 14:36:58;;;;;;;6.38;1.85;;;;;;;;;;5038851;28;20036;-64
2023/08/14 14:39:24;;;;;;;6.90;1.92;;;;;;;;;;5031893;28;20040;-64